Time;durP1;ratioP1;P1;durP2;ratioP2;P2;SDS_P1;SDS_P2;PMS_P1;PMS_P2;Temp;Humidity;BMP_temperature;BMP_pressure;BME280_temperature;BME280_humidity;BME280_pressure;Samples;Min_cycle;Max_cycle;Signal;HPM_P1;HPM_P2
2022/06/04 00:01:46;;;;;;;16.00;5.90;;;;;;;-145.69;100.00;71265.09;5075253;28;20210;-80
2022/06/04 00:04:17;;;;;;;10.43;6.00;;;;;;;-145.69;100.00;71267.09;5075530;28;20264;-81
2022/06/04 00:06:49;;;;;;;7.25;5.43;;;;;;;-145.69;100.00;71277.03;5074898;28;20191;-80
2022/06/04 00:09:16;;;;;;;8.63;5.05;;;;;;;-145.69;100.00;71281.00;5075296;28;20194;-82
2022/06/04 00:17:13;;;;;;;10.48;4.93;;;;;;;-145.69;100.00;71294.94;5075226;28;20201;-81
2022/06/04 00:19:46;;;;;;;8.63;5.55;;;;;;;-145.69;100.00;71290.97;5074918;28;20664;-81
2022/06/04 00:22:15;;;;;;;7.13;5.22;;;;;;;-145.69;100.00;71302.91;5075073;28;20227;-81
2022/06/04 00:24:43;;;;;;;8.52;5.03;;;;;;;-145.69;100.00;71306.88;5074928;28;20218;-80
2022/06/04 00:27:17;;;;;;;10.77;4.30;;;;;;;-145.69;100.00;71314.84;5074413;28;20226;-80
2022/06/04 00:29:43;;;;;;;10.35;5.03;;;;;;;-145.69;100.00;71314.84;5074919;28;20206;-80
2022/06/04 00:32:10;;;;;;;12.07;4.50;;;;;;;-145.69;100.00;71308.88;5074681;28;20248;-81
2022/06/04 00:34:38;;;;;;;6.90;4.57;;;;;;;-145.69;100.00;71314.84;5075041;28;20194;-80
2022/06/04 00:37:09;;;;;;;9.25;5.63;;;;;;;-145.69;100.00;71312.84;5074965;28;20539;-80
2022/06/04 00:39:42;;;;;;;9.80;5.40;;;;;;;-145.69;100.00;71298.94;5074981;28;20206;-80
2022/06/04 00:42:12;;;;;;;9.73;5.70;;;;;;;-145.69;100.00;71283.00;5073403;28;20943;-80
2022/06/04 00:45:25;;;;;;;7.82;5.05;;;;;;;-145.69;100.00;71283.00;5074439;28;20206;-81
2022/06/04 00:47:54;;;;;;;9.05;5.50;;;;;;;-145.69;100.00;71285.00;5074641;28;20285;-81
2022/06/04 00:50:22;;;;;;;12.77;5.57;;;;;;;-145.69;100.00;71286.97;5074495;28;20218;-80
2022/06/04 00:52:52;;;;;;;8.00;5.00;;;;;;;-145.69;100.00;71283.00;5074484;28;20203;-80
2022/06/04 00:55:19;;;;;;;8.45;4.95;;;;;;;-145.69;100.00;71283.00;5073668;28;20199;-80
2022/06/04 00:58:05;;;;;;;11.73;5.43;;;;;;;-145.69;100.00;71286.97;5054541;28;20211;-80
2022/06/04 01:00:36;;;;;;;9.52;4.32;;;;;;;-145.69;100.00;71283.00;5054890;28;20199;-80
2022/06/04 01:03:33;;;;;;;8.27;4.50;;;;;;;-145.69;100.00;71275.03;5053833;28;20231;-80
2022/06/04 01:06:24;;;;;;;10.77;4.35;;;;;;;-145.69;100.00;71290.97;5052715;28;20207;-79
2022/06/04 01:09:13;;;;;;;13.23;4.57;;;;;;;-145.69;100.00;71294.94;5065556;28;20226;-80
2022/06/04 01:12:12;;;;;;;13.75;4.20;;;;;;;-145.69;100.00;71294.94;5074422;28;20203;-80
2022/06/04 01:14:58;;;;;;;7.15;4.20;;;;;;;-145.69;100.00;71290.97;5074198;28;20202;-81
2022/06/04 01:17:36;;;;;;;6.18;4.20;;;;;;;-145.69;100.00;71285.00;5072826;28;20501;-80
2022/06/04 01:20:15;;;;;;;8.60;3.97;;;;;;;-145.69;100.00;71277.03;5054313;28;20209;-81
2022/06/04 01:23:04;;;;;;;5.65;3.67;;;;;;;-145.69;100.00;71279.03;5053981;28;20318;-81
2022/06/04 01:25:45;;;;;;;6.97;3.83;;;;;;;-145.69;100.00;71259.13;5042369;28;20285;-81
2022/06/04 01:28:16;;;;;;;4.93;3.35;;;;;;;-145.69;100.00;71257.13;5057988;28;20238;-81
2022/06/04 01:30:46;;;;;;;5.43;3.13;;;;;;;-145.69;100.00;71267.09;5074004;28;20657;-81
2022/06/04 01:33:23;;;;;;;6.78;3.47;;;;;;;-145.69;100.00;71269.06;5073483;28;20752;-81
2022/06/04 01:35:59;;;;;;;8.32;3.65;;;;;;;-145.69;100.00;71253.16;5073804;28;20260;-80
2022/06/04 01:38:34;;;;;;;5.38;3.40;;;;;;;-145.69;100.00;71259.13;5073600;28;20198;-80
2022/06/04 01:41:05;;;;;;;9.75;3.50;;;;;;;-145.69;100.00;71269.06;5070564;28;20295;-81
2022/06/04 01:43:38;;;;;;;5.80;3.33;;;;;;;-145.69;100.00;71273.06;5073479;28;20227;-81
2022/06/04 01:46:10;;;;;;;8.43;3.47;;;;;;;-145.69;100.00;71279.03;5073633;28;20198;-81
2022/06/04 01:48:44;;;;;;;5.72;3.20;;;;;;;-145.69;100.00;71286.97;5073489;28;20199;-81
2022/06/04 01:51:13;;;;;;;8.45;3.58;;;;;;;-145.69;100.00;71298.94;5073259;28;20473;-81
2022/06/04 01:53:42;;;;;;;5.60;3.53;;;;;;;-145.69;100.00;71310.84;5073295;28;20218;-81
2022/06/04 01:56:13;;;;;;;6.15;3.17;;;;;;;-145.69;100.00;71298.94;5073358;28;20202;-81
2022/06/04 01:58:48;;;;;;;5.78;3.47;;;;;;;-145.69;100.00;71298.94;5073316;28;20198;-82
2022/06/04 02:01:25;;;;;;;9.57;3.72;;;;;;;-145.69;100.00;71302.91;5073359;28;20210;-81
2022/06/04 02:03:59;;;;;;;10.45;3.45;;;;;;;-145.69;100.00;71302.91;5073362;28;20232;-82
2022/06/04 02:06:35;;;;;;;7.72;3.72;;;;;;;-145.69;100.00;71312.84;5072326;28;20534;-81
2022/06/04 02:09:07;;;;;;;9.45;2.90;;;;;;;-145.69;100.00;71318.81;5053407;28;20199;-81
2022/06/04 02:11:39;;;;;;;5.97;3.28;;;;;;;-145.69;100.00;71338.72;5053141;28;20214;-81
2022/06/04 02:14:16;;;;;;;10.55;3.60;;;;;;;-145.69;100.00;71324.78;5053035;28;20290;-81
2022/06/04 02:16:54;;;;;;;10.10;3.67;;;;;;;-145.69;100.00;71310.84;5056311;28;20205;-81
2022/06/04 02:19:24;;;;;;;6.53;3.35;;;;;;;-145.69;100.00;71314.84;5073154;28;20557;-81
2022/06/04 02:21:51;;;;;;;7.43;3.33;;;;;;;-145.69;100.00;71310.84;5072976;28;20285;-81
2022/06/04 02:24:29;;;;;;;7.63;3.63;;;;;;;-145.69;100.00;71308.88;5072828;28;20313;-81
2022/06/04 02:26:56;;;;;;;7.00;3.65;;;;;;;-145.69;100.00;71306.88;5072655;28;20230;-81
2022/06/04 02:29:33;;;;;;;7.60;3.30;;;;;;;-145.69;100.00;71302.91;5072790;28;20657;-82
2022/06/04 02:32:07;;;;;;;4.25;3.10;;;;;;;-145.69;100.00;71322.81;5073107;28;20202;-83
2022/06/04 02:34:43;;;;;;;6.35;3.25;;;;;;;-145.69;100.00;71302.91;5072153;28;20193;-81
2022/06/04 02:37:16;;;;;;;6.03;3.28;;;;;;;-145.69;100.00;71288.97;5073149;28;20202;-82
2022/06/04 02:39:50;;;;;;;6.32;3.38;;;;;;;-145.69;100.00;71290.97;5072651;28;20195;-82
2022/06/04 02:42:30;;;;;;;7.38;3.47;;;;;;;-145.69;100.00;71283.00;5072914;28;20244;-82
2022/06/04 02:45:06;;;;;;;8.05;3.63;;;;;;;-145.69;100.00;71279.03;5072817;28;20202;-82
2022/06/04 02:47:39;;;;;;;5.93;3.28;;;;;;;-145.69;100.00;71281.00;5072814;28;20565;-82
2022/06/04 02:50:17;;;;;;;8.13;3.58;;;;;;;-145.69;100.00;71285.00;5072621;28;20198;-82
2022/06/04 02:52:46;;;;;;;7.13;3.37;;;;;;;-145.69;100.00;71288.97;5071198;28;20438;-82
2022/06/04 02:55:23;;;;;;;9.30;3.28;;;;;;;-145.69;100.00;71306.88;5072624;28;20555;-82
2022/06/04 02:57:55;;;;;;;9.93;3.50;;;;;;;-145.69;100.00;71306.88;5072942;28;20206;-82
2022/06/04 03:00:42;;;;;;;;;;;;;;;;;;;;;
2022/06/04 03:03:11;;;;;;;7.28;3.70;;;;;;;-145.69;100.00;71304.91;5072449;28;20229;-82
2022/06/04 03:05:41;;;;;;;8.20;3.50;;;;;;;-145.69;100.00;71298.94;5072535;28;20198;-82
2022/06/04 03:08:09;;;;;;;12.60;3.72;;;;;;;-145.69;100.00;71300.91;5072446;28;20673;-82
2022/06/04 03:10:37;;;;;;;8.70;3.65;;;;;;;-145.69;100.00;71294.94;5072228;28;20199;-82
2022/06/04 03:13:06;;;;;;;5.60;3.83;;;;;;;-145.69;100.00;71290.97;5072363;28;20592;-82
2022/06/04 03:15:36;;;;;;;8.73;3.45;;;;;;;-145.69;100.00;71292.94;5072453;28;20203;-81
2022/06/04 03:18:07;;;;;;;7.43;3.15;;;;;;;-145.69;100.00;71308.88;5075067;28;20198;-82
2022/06/04 03:20:35;;;;;;;9.18;3.13;;;;;;;-145.69;100.00;71322.81;5076347;28;20232;-81
2022/06/04 03:23:01;;;;;;;6.22;3.60;;;;;;;-145.69;100.00;71330.75;5075780;28;20684;-81
2022/06/04 03:25:34;;;;;;;6.80;3.33;;;;;;;-145.69;100.00;71334.75;5076205;28;20680;-82
2022/06/04 03:28:01;;;;;;;10.00;3.83;;;;;;;-145.69;100.00;71318.81;5075877;28;20700;-81
2022/06/04 03:30:27;;;;;;;5.03;3.22;;;;;;;-145.69;100.00;71302.91;5076143;28;20203;-82
2022/06/04 03:32:59;;;;;;;7.85;3.65;;;;;;;-145.69;100.00;71302.91;5076298;28;20199;-82
2022/06/04 03:35:28;;;;;;;9.63;3.95;;;;;;;-145.69;100.00;71279.03;5075414;28;20450;-82
2022/06/04 03:37:59;;;;;;;8.88;3.60;;;;;;;-145.69;100.00;71259.13;5076999;28;20216;-82
2022/06/04 03:40:29;;;;;;;8.95;3.20;;;;;;;-145.69;100.00;71219.34;5073902;28;20646;-83
2022/06/04 03:42:55;;;;;;;4.40;2.40;;;;;;;-145.69;100.00;71141.72;5081117;28;20207;-83
2022/06/04 03:45:24;;;;;;;4.15;2.88;;;;;;;-145.69;100.00;71121.84;5079044;28;20205;-82
2022/06/04 03:47:55;;;;;;;7.72;2.92;;;;;;;-145.69;100.00;71131.78;5076453;28;20202;-82
2022/06/04 03:50:22;;;;;;;8.32;3.20;;;;;;;-145.69;100.00;71143.72;5075780;28;20676;-82
2022/06/04 03:52:50;;;;;;;4.80;2.70;;;;;;;-145.69;100.00;71139.75;5076152;28;20199;-83
2022/06/04 03:55:21;;;;;;;4.32;2.22;;;;;;;-145.69;100.00;71080.06;5076600;28;20205;-82
2022/06/04 03:57:50;;;;;;;5.03;1.48;;;;;;;-145.69;100.00;71036.28;5076910;28;20206;-81
2022/06/04 04:00:21;;;;;;;7.88;1.83;;;;;;;-145.69;100.00;71016.38;5075728;28;20267;-82
2022/06/04 04:02:53;;;;;;;4.28;1.88;;;;;;;-145.69;100.00;71030.31;5075576;28;20199;-82
2022/06/04 04:05:26;;;;;;;10.75;2.38;;;;;;;-145.69;100.00;71038.25;5075895;28;20658;-83
2022/06/04 04:07:54;;;;;;;4.35;1.98;;;;;;;-145.69;100.00;71020.34;5076065;28;20218;-82
2022/06/04 04:10:21;;;;;;;7.30;2.22;;;;;;;-145.69;100.00;70994.50;5075586;28;20584;-83
2022/06/04 04:12:50;;;;;;;5.43;2.60;;;;;;;-145.69;100.00;71008.41;5075599;28;20204;-82
2022/06/04 04:15:17;;;;;;;5.07;1.95;;;;;;;-145.69;100.00;70974.59;5075595;28;20753;-82
2022/06/04 04:17:44;;;;;;;8.43;2.03;;;;;;;-145.69;100.00;70952.72;5075355;28;20238;-82
2022/06/04 04:20:14;;;;;;;4.35;2.00;;;;;;;-145.69;100.00;70960.66;5075860;28;20203;-83
2022/06/04 04:22:45;;;;;;;3.85;1.60;;;;;;;-145.69;100.00;70962.66;5075601;28;20642;-82
2022/06/04 04:25:14;;;;;;;9.70;1.70;;;;;;;-145.69;100.00;70970.63;5075979;28;20629;-83
2022/06/04 04:27:42;;;;;;;2.95;1.58;;;;;;;-145.69;100.00;70956.69;5075264;28;20241;-83
2022/06/04 04:30:16;;;;;;;6.93;1.52;;;;;;;-145.69;100.00;70962.66;5074870;28;20645;-83
2022/06/04 04:32:43;;;;;;;2.88;1.60;;;;;;;-145.69;100.00;70988.53;5075436;28;20282;-81
2022/06/04 04:35:15;;;;;;;8.05;1.60;;;;;;;-145.69;100.00;71012.41;5075324;28;20206;-82
2022/06/04 04:37:45;;;;;;;2.25;1.50;;;;;;;-145.69;100.00;71020.34;5074897;28;20658;-81
2022/06/04 04:40:20;;;;;;;4.35;1.77;;;;;;;-145.69;100.00;71040.25;5075190;28;20199;-82
2022/06/04 04:42:51;;;;;;;5.28;1.60;;;;;;;-145.69;100.00;71054.19;5075225;28;20202;-81
2022/06/04 04:45:23;;;;;;;3.03;1.80;;;;;;;-145.69;100.00;71054.19;5074974;28;20258;-82
2022/06/04 04:47:52;;;;;;;2.55;1.70;;;;;;;-145.69;100.00;71064.13;5074507;28;20669;-82
2022/06/04 04:50:23;;;;;;;5.90;2.00;;;;;;;-145.69;100.00;71086.03;5075170;28;20207;-81
2022/06/04 04:52:55;;;;;;;3.50;1.80;;;;;;;-145.69;100.00;71090.00;5074641;28;20665;-82
2022/06/04 04:55:29;;;;;;;4.20;1.80;;;;;;;-145.69;100.00;71084.03;5074917;28;20213;-83
2022/06/04 04:57:59;;;;;;;5.53;2.30;;;;;;;-145.69;100.00;71086.03;5074102;28;20198;-81
2022/06/04 05:00:26;;;;;;;3.00;1.90;;;;;;;-145.69;100.00;71097.97;5074191;28;20281;-81
2022/06/04 05:02:55;;;;;;;3.13;1.70;;;;;;;-145.69;100.00;71099.94;5074680;28;20205;-81
2022/06/04 05:05:21;;;;;;;4.32;2.10;;;;;;;-145.69;100.00;71092.00;5074240;28;20730;-81
2022/06/04 05:07:54;;;;;;;2.80;1.80;;;;;;;-145.69;100.00;71135.75;5074538;28;20203;-81
2022/06/04 05:10:24;;;;;;;3.78;2.22;;;;;;;-145.69;100.00;71119.84;5074410;28;20234;-81
2022/06/04 05:12:56;;;;;;;4.93;2.33;;;;;;;-145.69;100.00;71131.78;5074019;28;20206;-81
2022/06/04 05:15:28;;;;;;;3.53;1.90;;;;;;;-145.69;100.00;71119.84;5073799;28;20202;-81
2022/06/04 05:17:59;;;;;;;3.90;2.13;;;;;;;-145.69;100.00;71139.75;5074501;28;20206;-82
2022/06/04 05:20:30;;;;;;;6.35;2.40;;;;;;;-145.69;100.00;71141.72;5074081;28;20445;-83
2022/06/04 05:23:06;;;;;;;6.25;2.20;;;;;;;-145.69;100.00;71117.84;5074314;28;20198;-82
2022/06/04 05:25:38;;;;;;;5.32;2.33;;;;;;;-145.69;100.00;71113.88;5073647;28;20226;-82
2022/06/04 05:28:11;;;;;;;3.70;2.72;;;;;;;-145.69;100.00;71084.03;5073856;28;20281;-82
2022/06/04 05:30:46;;;;;;;5.97;2.78;;;;;;;-145.69;100.00;71082.03;5073994;28;20707;-81
2022/06/04 05:33:18;;;;;;;6.80;2.78;;;;;;;-145.69;100.00;71076.06;5073997;28;20221;-81
2022/06/04 05:35:49;;;;;;;5.57;2.50;;;;;;;-145.69;100.00;71086.03;5073498;28;20199;-81
2022/06/04 05:38:21;;;;;;;4.60;2.60;;;;;;;-145.69;100.00;71095.97;5074041;28;20202;-81
2022/06/04 05:40:48;;;;;;;3.35;2.35;;;;;;;-145.69;100.00;71095.97;5073885;28;20207;-81
2022/06/04 05:43:19;;;;;;;4.85;2.22;;;;;;;-145.69;100.00;71092.00;5073810;28;20195;-81
2022/06/04 05:45:46;;;;;;;8.57;2.22;;;;;;;-145.69;100.00;71084.03;5073925;28;20199;-83
2022/06/04 05:48:12;;;;;;;3.45;2.00;;;;;;;-145.69;100.00;71080.06;5073473;28;20228;-80
2022/06/04 05:50:51;;;;;;;3.85;2.28;;;;;;;-145.69;100.00;71084.03;5070409;28;20195;-82
2022/06/04 05:53:22;;;;;;;5.40;2.20;;;;;;;-145.69;100.00;71088.00;5053472;28;20287;-82
2022/06/04 05:55:56;;;;;;;3.25;1.90;;;;;;;-145.69;100.00;71095.97;5053025;28;20206;-80
2022/06/04 05:58:22;;;;;;;4.43;2.10;;;;;;;-145.69;100.00;71097.97;5053467;28;20195;-81
2022/06/04 06:00:58;;;;;;;5.95;1.90;;;;;;;-145.69;100.00;71080.06;5064852;28;20199;-81
2022/06/04 06:03:24;;;;;;;3.50;1.92;;;;;;;-145.69;100.00;71093.97;5073791;28;20299;-81
2022/06/04 06:05:51;;;;;;;2.45;2.00;;;;;;;-145.69;100.00;71095.97;5073435;28;20205;-81
2022/06/04 06:08:24;;;;;;;2.92;1.88;;;;;;;-145.69;100.00;71080.06;5073238;28;20199;-81
2022/06/04 06:10:53;;;;;;;3.35;2.00;;;;;;;-145.69;100.00;71066.13;5073342;28;20592;-81
2022/06/04 06:13:22;;;;;;;4.55;2.40;;;;;;;-145.69;100.00;71054.19;5072829;28;20557;-82
2022/06/04 06:15:49;;;;;;;5.43;2.25;;;;;;;-145.69;100.00;71052.19;5073395;28;20203;-81
2022/06/04 06:18:19;;;;;;;3.70;2.10;;;;;;;-145.69;100.00;71044.22;5073175;28;20206;-82
2022/06/04 06:20:48;;;;;;;4.10;2.47;;;;;;;-145.69;100.00;71046.22;5073055;28;20198;-82
2022/06/04 06:23:15;;;;;;;5.82;2.85;;;;;;;-145.69;100.00;71004.44;5073040;28;20206;-82
2022/06/04 06:25:50;;;;;;;5.28;2.40;;;;;;;-145.69;100.00;70986.53;5072717;28;20264;-82
2022/06/04 06:28:16;;;;;;;5.22;2.40;;;;;;;-145.69;100.00;70992.50;5072766;28;20230;-81
2022/06/04 06:30:49;;;;;;;1.90;1.50;;;;;;;-145.69;100.00;70992.50;5073197;28;20222;-80
2022/06/04 06:33:17;;;;;;;3.03;1.35;;;;;;;-145.69;100.00;70948.72;5072901;28;20662;-81
2022/06/04 06:35:44;;;;;;;1.77;1.30;;;;;;;-145.69;100.00;70948.72;5073386;28;20191;-82
2022/06/04 06:38:11;;;;;;;1.88;1.25;;;;;;;-145.69;100.00;70938.78;5072286;28;20543;-81
2022/06/04 06:40:38;;;;;;;5.22;1.63;;;;;;;-145.69;100.00;70904.97;5073081;28;20252;-82
2022/06/04 06:43:06;;;;;;;2.25;1.38;;;;;;;-145.69;100.00;70875.13;5072981;28;20214;-81
2022/06/04 06:45:34;;;;;;;3.20;1.90;;;;;;;-145.69;100.00;70871.13;5072518;28;20233;-82
2022/06/04 06:48:01;;;;;;;2.35;1.20;;;;;;;-145.69;100.00;70855.22;5072618;28;20198;-81
2022/06/04 06:50:28;;;;;;;3.65;1.33;;;;;;;-145.69;100.00;70827.38;5072822;28;20209;-82
2022/06/04 06:52:57;;;;;;;4.65;1.30;;;;;;;-145.69;100.00;70795.53;5072173;28;20240;-81
2022/06/04 06:55:23;;;;;;;2.22;1.33;;;;;;;-145.69;100.00;70769.66;5072670;28;20260;-81
2022/06/04 06:57:50;;;;;;;3.83;1.60;;;;;;;-145.69;100.00;70809.47;5073156;28;20199;-82
2022/06/04 07:00:20;;;;;;;2.40;1.48;;;;;;;-145.69;100.00;70769.66;5072610;28;20202;-81
2022/06/04 07:02:51;;;;;;;2.25;1.10;;;;;;;-145.69;100.00;70777.63;5072996;28;20557;-81
2022/06/04 07:05:21;;;;;;;5.75;2.42;;;;;;;-145.69;98.72;70771.66;5072504;28;20231;-82
2022/06/04 07:07:51;;;;;;;6.32;2.40;;;;;;;-145.69;98.43;70753.75;5072951;28;20206;-81
2022/06/04 07:10:22;;;;;;;4.10;2.25;;;;;;;-145.69;98.15;70777.63;5072541;28;20198;-82
2022/06/04 07:12:48;;;;;;;2.13;1.20;;;;;;;-145.69;100.00;70821.41;5072476;28;20199;-81
2022/06/04 07:15:15;;;;;;;2.42;1.30;;;;;;;-145.69;100.00;70835.31;5072407;28;20669;-81
2022/06/04 07:17:43;;;;;;;2.70;1.20;;;;;;;-145.69;100.00;70825.38;5072369;28;20206;-80
2022/06/04 07:20:10;;;;;;;1.98;1.17;;;;;;;-145.69;100.00;70757.72;5073006;28;20210;-81
2022/06/04 07:22:37;;;;;;;2.20;1.13;;;;;;;-145.69;97.50;70781.59;5072674;28;20206;-81
2022/06/04 07:25:04;;;;;;;1.88;1.35;;;;;;;-145.69;100.00;70791.56;5072182;28;20731;-81
2022/06/04 07:27:30;;;;;;;2.60;1.27;;;;;;;-145.69;99.02;70749.78;5072516;28;20234;-82
2022/06/04 07:30:00;;;;;;;2.15;1.50;;;;;;;-145.69;100.00;70749.78;5072231;28;20658;-82
2022/06/04 07:32:27;;;;;;;3.33;1.90;;;;;;;-145.69;100.00;70711.97;5072349;28;20210;-83
2022/06/04 07:34:55;;;;;;;5.38;1.60;;;;;;;-145.69;96.39;70686.09;5072523;28;20210;-82
2022/06/04 07:37:21;;;;;;;3.88;1.70;;;;;;;-145.69;95.75;70678.16;5072231;28;20199;-81
2022/06/04 07:39:48;;;;;;;6.45;1.98;;;;;;;-145.69;91.33;70668.19;5072456;28;20203;-82
2022/06/04 07:42:14;;;;;;;3.88;1.92;;;;;;;-145.69;95.58;70670.19;5071494;28;20228;-82
2022/06/04 07:44:41;;;;;;;6.43;2.13;;;;;;;-145.69;96.06;70686.09;5054273;28;20219;-82
2022/06/04 07:47:07;;;;;;;5.85;2.20;;;;;;;-145.69;99.85;70737.84;5053591;28;20203;-82
2022/06/04 07:49:34;;;;;;;4.50;2.50;;;;;;;-145.69;94.96;70688.09;5069109;28;20553;-82
2022/06/04 07:52:01;;;;;;;4.53;2.25;;;;;;;-145.69;90.63;70670.19;5072109;28;20199;-81
2022/06/04 07:54:28;;;;;;;3.65;2.40;;;;;;;-145.69;92.13;70694.06;5072135;28;20203;-82
2022/06/04 07:56:54;;;;;;;5.30;2.40;;;;;;;-145.69;91.65;70680.13;5072333;28;20199;-82
2022/06/04 07:59:21;;;;;;;8.20;2.55;;;;;;;-145.69;94.06;70719.94;5072069;28;20248;-82
2022/06/04 08:01:47;;;;;;;2.85;1.92;;;;;;;-145.69;98.24;70755.75;5071472;28;20195;-81
2022/06/04 08:04:14;;;;;;;3.72;2.40;;;;;;;-145.69;100.00;70787.56;5073260;28;20206;-81
2022/06/04 08:06:41;;;;;;;6.15;2.40;;;;;;;-145.69;100.00;70767.69;5075397;28;20197;-82
2022/06/04 08:09:09;;;;;;;4.47;2.80;;;;;;;-145.69;94.88;70737.84;5075546;28;20203;-82
2022/06/04 08:11:36;;;;;;;3.17;1.83;;;;;;;-145.69;93.99;70721.91;5075406;28;20724;-82
2022/06/04 08:14:09;;;;;;;2.67;1.90;;;;;;;-145.69;93.51;70706.00;5075219;28;20565;-81
2022/06/04 08:16:38;;;;;;;2.45;1.50;;;;;;;-145.69;90.82;70624.44;5055733;28;20206;-80
2022/06/04 08:19:20;;;;;;;3.75;1.90;;;;;;;-145.69;92.68;70668.19;5055717;28;20204;-82
2022/06/04 08:21:46;;;;;;;4.10;2.38;;;;;;;-145.69;96.09;70676.16;5056899;28;20670;-80
2022/06/04 08:24:15;;;;;;;7.25;2.08;;;;;;;-145.69;93.19;70690.09;5061738;28;20202;-81
2022/06/04 08:26:43;;;;;;;4.40;2.00;;;;;;;-145.69;92.79;70662.22;5075112;28;20199;-80
2022/06/04 08:29:09;;;;;;;5.10;2.10;;;;;;;-145.69;90.64;70610.50;5061311;28;20203;-82
2022/06/04 08:31:36;;;;;;;4.47;2.10;;;;;;;-145.69;90.99;70636.38;5054913;28;20203;-82
2022/06/04 08:34:04;;;;;;;2.45;1.85;;;;;;;-145.69;91.42;70592.59;5055917;28;20447;-82
2022/06/04 08:36:30;;;;;;;3.55;1.85;;;;;;;-145.69;85.50;70526.94;5061286;28;20222;-83
2022/06/04 08:38:57;;;;;;;3.08;1.88;;;;;;;-145.69;85.58;70487.16;5062057;28;20253;-81
2022/06/04 08:41:44;;;;;;;3.25;1.80;;;;;;;-145.69;81.08;70379.72;5054513;28;20566;-81
2022/06/04 08:44:16;;;;;;;3.55;1.98;;;;;;;-145.69;87.01;70505.06;5053950;28;20447;-80
2022/06/04 08:46:49;;;;;;;5.03;2.30;;;;;;;-145.69;93.36;70624.44;5054762;28;20210;-81
2022/06/04 08:49:29;;;;;;;4.50;2.28;;;;;;;-145.69;98.19;70596.59;5066684;28;20207;-79
2022/06/04 08:51:56;;;;;;;3.70;1.90;;;;;;;-145.69;87.12;70526.94;5075130;28;20604;-80
2022/06/04 09:00:04;;;;;;;3.83;1.80;;;;;;;-145.69;83.71;70447.38;5074297;28;20206;-80
2022/06/04 09:02:46;;;;;;;5.20;2.10;;;;;;;-145.69;78.29;70373.78;5074543;28;20234;-80
2022/06/04 09:05:24;;;;;;;7.30;2.35;;;;;;;-145.69;85.43;70332.00;5074854;28;20222;-80
2022/06/04 09:07:56;;;;;;;1.90;1.60;;;;;;;-145.69;82.76;70367.81;5074545;28;20207;-80
2022/06/04 09:10:27;;;;;;;2.40;1.73;;;;;;;-145.69;81.26;70469.25;5074247;28;20281;-80
2022/06/04 09:13:01;;;;;;;3.67;1.90;;;;;;;-145.69;77.42;70405.59;5074096;28;20222;-80
2022/06/04 09:15:31;;;;;;;1.88;1.30;;;;;;;-145.69;75.97;70322.03;5074024;28;20206;-79
2022/06/04 09:17:59;;;;;;;3.92;2.15;;;;;;;-145.69;83.69;70373.78;5074419;28;20207;-80
2022/06/04 09:20:33;;;;;;;4.07;1.98;;;;;;;-145.69;85.31;70427.47;5073874;28;20198;-80
2022/06/04 09:23:05;;;;;;;2.78;1.75;;;;;;;-145.69;83.19;70377.75;5074089;28;20213;-79
2022/06/04 09:25:44;;;;;;;3.42;2.10;;;;;;;-145.69;78.89;70359.84;5074009;28;20314;-79
2022/06/04 09:28:35;;;;;;;3.05;1.85;;;;;;;-145.69;80.79;70415.53;5073710;28;20237;-79
2022/06/04 09:31:15;;;;;;;2.50;1.52;;;;;;;-145.69;73.02;70451.34;5073961;28;20203;-80
2022/06/04 09:33:54;;;;;;;5.05;1.50;;;;;;;-145.69;75.40;70433.44;5074166;28;20198;-81
2022/06/04 09:36:25;;;;;;;5.22;1.60;;;;;;;-145.69;78.68;70435.44;5073534;28;20722;-79
2022/06/04 09:38:56;;;;;;;1.50;1.13;;;;;;;-145.69;67.48;70403.59;5073725;28;20195;-80
2022/06/04 09:41:25;;;;;;;5.18;1.30;;;;;;;-145.69;64.44;70375.75;5072791;28;20513;-80
2022/06/04 09:44:08;;;;;;;2.03;1.05;;;;;;;-145.69;61.06;70339.94;5073707;28;20253;-81
2022/06/04 09:46:35;;;;;;;2.65;1.00;;;;;;;-145.69;59.63;70351.88;5073375;28;20230;-79
2022/06/04 09:49:22;;;;;;;3.17;1.20;;;;;;;-145.69;60.23;70355.88;5073174;28;20195;-79
2022/06/04 09:51:48;;;;;;;2.25;1.02;;;;;;;-145.69;62.74;70401.63;5062558;28;20292;-80
2022/06/04 09:54:24;;;;;;;3.85;1.35;;;;;;;-145.69;65.88;70415.53;5053382;28;20203;-79
2022/06/04 09:56:54;;;;;;;4.40;1.20;;;;;;;-145.69;67.72;70447.38;5053670;28;20257;-81
2022/06/04 09:59:24;;;;;;;2.58;0.88;;;;;;;-145.69;62.84;70431.47;5054143;28;20612;-79
2022/06/04 10:01:56;;;;;;;1.77;1.08;;;;;;;-145.69;67.04;70455.34;5067717;28;20190;-80
2022/06/04 10:04:24;;;;;;;1.38;0.93;;;;;;;-145.69;62.82;70489.16;5073367;28;20195;-79
2022/06/04 10:06:51;;;;;;;3.30;0.80;;;;;;;-145.69;62.61;70427.47;5073059;28;20708;-80
2022/06/04 10:12:16;;;;;;;1.20;0.90;;;;;;;-145.69;58.67;70401.63;5073379;28;20197;-80
2022/06/04 10:14:56;;;;;;;1.77;0.90;;;;;;;-145.69;58.33;70419.53;5072033;28;20477;-80
2022/06/04 10:17:34;;;;;;;1.50;1.05;;;;;;;-145.69;63.29;70423.50;5073456;28;20202;-82
2022/06/04 10:20:00;;;;;;;1.80;1.27;;;;;;;-145.69;63.39;70415.53;5073596;28;20202;-82
2022/06/04 10:22:28;;;;;;;2.75;1.30;;;;;;;-145.69;66.33;70401.63;5073044;28;20533;-80
2022/06/04 10:24:56;;;;;;;3.05;1.15;;;;;;;-145.69;64.04;70339.94;5072565;28;20240;-80
2022/06/04 10:27:39;;;;;;;1.83;1.00;;;;;;;-145.69;65.05;70270.31;5071950;28;20230;-80
2022/06/04 10:30:18;;;;;;;2.42;1.05;;;;;;;-145.69;65.12;70246.44;5073273;28;20202;-83
2022/06/04 10:32:57;;;;;;;2.05;1.40;;;;;;;-145.69;61.76;70282.25;5074383;28;20202;-80
2022/06/04 10:35:41;;;;;;;1.85;0.98;;;;;;;-145.69;60.00;70351.88;5073507;28;20209;-80
2022/06/04 10:38:31;;;;;;;1.65;0.80;;;;;;;-145.69;62.93;70359.84;5072267;28;20195;-79
2022/06/04 10:41:11;;;;;;;1.33;0.90;;;;;;;-145.69;60.14;70326.03;5074228;28;20209;-80
2022/06/04 10:44:04;;;;;;;4.07;1.10;;;;;;;-145.69;57.16;70399.63;5073518;28;20209;-80
2022/06/04 10:46:45;;;;;;;4.20;0.93;;;;;;;-145.69;62.06;70407.59;5073319;28;20257;-80
2022/06/04 10:49:28;;;;;;;2.92;1.00;;;;;;;-145.69;59.99;70425.50;5073868;28;20573;-78
2022/06/04 10:52:05;;;;;;;7.28;2.13;;;;;;;-145.69;61.65;70345.91;5072044;28;20446;-80
2022/06/04 10:54:39;;;;;;;1.00;0.90;;;;;;;-145.69;58.86;70347.91;5073006;28;20205;-80
2022/06/04 10:57:18;;;;;;;1.33;0.90;;;;;;;-145.69;58.75;70347.91;5072915;28;20645;-81
2022/06/04 10:59:51;;;;;;;0.90;0.82;;;;;;;-145.69;61.30;70347.91;5073064;28;20201;-79
2022/06/04 11:02:25;;;;;;;1.90;0.80;;;;;;;-145.69;57.72;70339.94;5072452;28;20286;-80
2022/06/04 11:04:55;;;;;;;2.60;1.05;;;;;;;-145.69;58.41;70363.81;5073047;28;20202;-82
2022/06/04 11:07:42;;;;;;;1.98;0.80;;;;;;;-145.69;62.46;70375.75;5072828;28;20234;-79
2022/06/04 11:10:18;;;;;;;3.10;0.90;;;;;;;-145.69;58.12;70355.88;5072793;28;20194;-80
2022/06/04 11:12:51;;;;;;;1.73;1.02;;;;;;;-145.69;59.26;70351.88;5072478;28;20597;-80
2022/06/04 11:15:26;;;;;;;2.38;1.25;;;;;;;-145.69;61.11;70395.66;5072638;28;20202;-80
2022/06/04 11:18:01;;;;;;;3.67;0.90;;;;;;;-145.69;61.31;70363.81;5072783;28;20206;-82
2022/06/04 11:20:32;;;;;;;0.98;0.70;;;;;;;-145.69;57.54;70359.84;5072908;28;20204;-80
2022/06/04 11:23:16;;;;;;;2.25;0.70;;;;;;;-145.69;56.67;70371.78;5071998;28;20490;-79
2022/06/04 11:25:47;;;;;;;2.85;0.88;;;;;;;-145.69;54.02;70333.97;5072100;28;20254;-79
2022/06/04 11:28:26;;;;;;;1.45;0.77;;;;;;;-145.69;54.08;70256.41;5072208;28;20563;-81
2022/06/04 11:31:07;;;;;;;1.77;1.10;;;;;;;-145.69;56.02;70320.06;5072923;28;20198;-81
2022/06/04 11:33:50;;;;;;;1.42;0.80;;;;;;;-145.69;54.95;70326.03;5073883;28;20202;-82
2022/06/04 11:36:28;;;;;;;5.45;1.40;;;;;;;-145.69;59.23;70320.06;5072785;28;20656;-80
2022/06/04 11:39:07;;;;;;;2.25;1.10;;;;;;;-145.69;59.44;70316.06;5073753;28;20190;-79
2022/06/04 11:41:42;;;;;;;4.55;1.15;;;;;;;-145.69;56.17;70286.25;5077201;28;20221;-82
2022/06/04 11:44:22;;;;;;;1.92;1.38;;;;;;;-145.69;58.52;70294.19;5077388;28;20561;-80
2022/06/04 11:47:02;;;;;;;1.95;1.20;;;;;;;-145.69;58.48;70296.19;5076162;28;20697;-80
2022/06/04 11:49:41;;;;;;;3.05;1.65;;;;;;;-145.69;62.80;70272.31;5068361;28;20199;-82